Airfield :
LOGIN :

Register | Disclaimer

   EN    FR    IT 

 










Legend :    VFR   Marginal VFR   IFR   Intensive IFR   Very Intensive IFR
Visi :
Ceiling :
>= 8 km
>= 3000ft
5 to 8 km
1000 to 3000 ft
1500m to 5 km
500 to 1000 ft
800 to 1500m
200 to 500 ft
< 800m
< 200 ft
Symbols :   Thunderstorms  Fog  Heavy snow  Heavy precipitations  Wind > 20 kt
SIGMETs :     Misc.  Thunderstorms  Icing  Turbulence  Mountain Waves  Volcanic Ashes







- Airport Elevation : 257 ft
- IATA code : MAN
- Download approach charts


EGCC - Manchester

CURRENT METAR :
  • 190320Z AUTO VRB03KT 1100 R23R/P1500 DZ OVC002 07/07 Q1016 RERA NOSIG

EXPIRED METARs :
  • 190250Z AUTO VRB02KT 1000 R23R/P1500 -DZ OVC001 07/07 Q1016 RERA NOSIG
  • 190220Z AUTO VRB02KT 1000 R23R/P1500 RA OVC001 07/07 Q1016 REDZ NOSIG
  • 190150Z AUTO 18004KT 150V210 1200 R23R/P1500 BR OVC002 07/07 Q1016 RERA REDZ NOSIG
  • 190120Z AUTO 19004KT 150V220 1600 RADZ OVC002 07/07 Q1016 NOSIG
  • 190050Z AUTO VRB03KT 2200 DZ BKN002 OVC007 07/07 Q1017 RERA NOSIG

TAF AMD TAF EGCC
Valid from the 19 at 02:00 until the 20 at 06:00 UTC


190220Z 1902/2006 18005KT 2000 -DZ BR BKN004
TEMPO 1902/1904 1200 RADZ BKN001
BECMG 1903/1906 31010KT
PROB30 1904/1912 0300 DZ FG BKN001
BECMG 1912/1915 9999 NSW BKN006
TEMPO 1915/1921 SCT010
BECMG 1921/1924 6000 BKN004
PROB30 2000/2005 0300 FG BKN001
BECMG 2004/2006 9999 FEW015
ATIS : +44 161 499 2324
No reported NOTAMs for that airfield.



MET'MAP, your aeronautical weather chart ! - Copyright ORBIFLY December 2007 - Disclaimer

ORBIFLY MET'MAP TEAM :

Programming & Development : Alexandra Zaïnal
Concept & Development : Baudouin d'Aumeries
Co-Development & Prog : Marc-Olivier Méhu
Technical & hardware support : Manuel Goepfert

Contact : metmap@orbifly.com




SOURCES & CREDITS :

   NOAA